x

Southeast Papa - 600nm West Of Eureka, Ca (46006) Weather Station

10:40pm - Fri 26th Aug 2016 All times are UTC.

  • Wind
    22mph, 27mph gusts
  • Sea Temp 68°f
  • Air Temp 66°f
  • Sea Pressure 1022.6mb

More Historic Weather Station data

Upgrade to MSW Pro to gain access to the past 30 days of data for over 8000 Wavebouys and Weather Stations around the globe.

Join Pro

Comparision Forecast

View Surf forecast
   
Fri 08/26 10:40pm  -   -   -  22 27 mph 1022.6mb 68f 66f
10:30pm  -   -   -  22 29 mph 1022.9mb 68f 66f
10:20pm  -   -   -  22 27 mph 1022.9mb - 66f
10:10pm  -   -   -  22 29 mph 1023mb 68f 66f
10:00pm  -   -   -  22 29 mph 1023mb 68f 66f
9:50pm 9ft 10s 6s 22 29 mph 1023mb 68f 66f
9:40pm 9ft  -  6s 22 29 mph 1023.1mb 68f 66f
9:30pm  -   -   -  22 27 mph 1023.3mb 68f 66f
9:20pm  -   -   -  20 27 mph 1023.3mb 68f 66f
9:10pm  -   -   -  22 29 mph 1023.5mb 68f 66f
9:00pm  -   -   -  25 34 mph 1023.5mb 68f 65f
8:50pm 9ft 10s 7s 22 29 mph 1023.5mb 68f 66f
8:40pm  -   -   -  20 25 mph 1023.5mb 68f 66f
8:30pm  -   -   -  22 27 mph 1023.5mb 68f 65f
8:20pm  -   -   -  22 27 mph 1023.5mb 68f 66f
8:10pm  -   -   -  20 25 mph 1023.6mb 68f 66f
8:00pm  -   -   -  22 29 mph 1023.6mb 68f 65f
7:50pm 9ft 11s 6s 20 27 mph 1023.6mb 68f 65f
7:40pm  -   -   -  22 27 mph 1023.8mb 68f 65f
7:30pm  -   -   -  22 31 mph 1023.9mb 68f 65f
7:20pm  -   -   -  22 27 mph 1024mb 68f 65f
7:10pm  -   -   -  22 27 mph 1024mb 68f 64f
7:00pm  -   -   -  22 27 mph 1024mb 68f 64f
6:50pm 9.5ft 10s 7s 22 29 mph 1024mb 68f 65f
6:40pm  -   -   -  18 25 mph 1024mb 68f 65f
6:30pm  -   -   -  20 27 mph 1024mb 68f 65f
6:20pm  -   -   -  22 27 mph 1024mb 68f 65f
6:10pm  -   -   -  20 27 mph 1024mb 68f 64f
6:00pm  -   -   -  22 29 mph 1024mb 68f 64f
5:50pm 9.5ft 10s 7s 22 29 mph 1024mb 68f 65f
5:40pm  -   -   -  20 25 mph 1024mb 68f 65f
5:30pm  -   -   -  20 27 mph 1024mb 68f 65f
5:20pm  -   -   -  22 27 mph 1024mb 68f 65f
5:10pm  -   -   -  20 27 mph 1024mb 68f 66f
5:00pm  -   -   -  20 29 mph 1024.2mb 68f 66f
4:50pm 10.5ft 10s 7s 22 29 mph 1024.2mb 68f 66f
4:40pm  -   -   -  20 29 mph 1024.3mb 68f 66f
4:30pm  -   -   -  22 27 mph 1024.3mb 68f 66f
4:20pm  -   -   -  22 27 mph 1024.3mb 68f 66f
4:10pm  -   -   -  20 25 mph 1024.3mb 68f 66f
4:00pm  -   -   -  20 27 mph 1024.3mb 68f 66f
3:50pm 11ft 10s 7s 20 27 mph 1024.3mb 68f 65f
3:40pm  -   -   -  20 27 mph 1024.3mb 68f 65f
3:30pm  -   -   -  22 29 mph 1024.3mb 68f 65f
3:20pm  -   -   -  22 29 mph 1024.3mb 68f 65f
3:10pm  -   -   -  22 29 mph 1024.3mb 68f 65f
3:00pm  -   -   -  22 29 mph 1024.3mb 68f 65f
2:50pm 11ft 10s 7s 22 29 mph 1024.3mb 68f 65f
2:40pm  -   -   -  25 31 mph 1024.3mb 68f 65f
2:30pm  -   -   -  22 29 mph 1024.3mb 68f 65f
2:20pm  -   -   -  22 29 mph 1024.2mb 68f 65f
2:10pm  -   -   -  25 31 mph 1024.2mb 68f 65f
2:00pm  -   -   -  20 29 mph 1024.3mb 68f 65f
1:50pm 11.5ft 10s 7s 22 29 mph 1024.3mb 68f 65f
1:40pm  -   -   -  22 31 mph 1024.3mb 68f 65f
1:30pm  -   -   -  22 27 mph 1024.3mb 68f 65f
1:20pm  -   -   -  22 29 mph 1024.3mb 68f 65f
1:10pm  -   -   -  20 27 mph 1024.3mb 68f 65f
1:00pm  -   -   -  22 29 mph 1024.3mb 68f 65f
12:50pm 11ft 9s 7s 22 29 mph 1024.3mb 68f 65f
12:40pm  -   -   -  22 29 mph 1024.5mb 68f 65f
12:30pm  -   -   -  22 29 mph 1024.5mb 68f 64f
12:20pm  -   -   -  22 27 mph 1024.5mb 68f 64f
12:10pm  -   -   -  22 31 mph 1024.8mb 68f 64f
12:00pm  -   -   -  22 29 mph 1024.8mb 68f 64f
11:50am 11ft 10s 7s 22 31 mph 1025mb 68f 65f
11:40am  -   -   -  25 31 mph 1025mb 68f 65f
11:30am  -   -   -  25 34 mph 1025.2mb 68f 65f
11:20am  -   -   -  25 34 mph 1025.3mb 68f 65f
11:10am  -   -   -  20 27 mph 1025.3mb 68f 65f
11:00am  -   -   -  22 29 mph 1025.3mb 68f 65f
10:50am 11ft 9s 7s 22 29 mph 1025.5mb 68f 65f
10:40am  -   -   -  25 29 mph 1025.5mb 68f 64f
10:30am  -   -   -  27 34 mph 1025.7mb 68f 64f
10:20am  -   -   -  25 34 mph 1025.8mb 68f 65f
10:10am  -   -   -  25 31 mph 1025.7mb 68f 65f
10:00am  -   -   -  25 31 mph 1025.8mb 68f 65f
9:50am 11ft 9s 7s 22 29 mph 1025.8mb 68f 65f
9:40am  -   -   -  25 31 mph 1025.8mb 68f 65f
9:30am  -   -   -  25 31 mph 1026mb 68f 65f
9:20am  -   -   -  25 34 mph 1026mb 68f 65f
9:10am  -   -   -  25 34 mph 1026.2mb 68f 65f
9:00am  -   -   -  25 34 mph 1026.2mb 68f 65f
8:50am 11.5ft 9s 7s 27 34 mph 1026.2mb 68f 65f
8:40am  -   -   -  29 36 mph 1026.2mb 68f 65f
8:30am  -   -   -  27 36 mph 1026.2mb 68f 65f
8:20am  -   -   -  25 31 mph 1026mb 68f 65f
8:10am  -   -   -  27 34 mph 1026.3mb 68f 65f
8:00am  -   -   -  27 34 mph 1026.3mb 68f 65f
7:50am 10.5ft 9s 7s 27 34 mph 1026.5mb 68f 65f
7:40am  -   -   -  27 34 mph 1026.7mb 68f 65f
7:30am  -   -   -  27 31 mph 1026.5mb 68f 65f
7:20am  -   -   -  27 34 mph 1026.5mb 68f 65f
7:10am  -   -   -  25 34 mph 1026.7mb 68f 65f
7:00am  -   -   -  29 36 mph 1026.7mb 68f 65f
6:50am 9.5ft 9s 6s 25 34 mph 1026.5mb - 66f
6:40am  -   -   -  27 34 mph 1026.7mb 68f 65f
6:30am  -   -   -  27 34 mph 1026.7mb 68f 66f
6:20am  -   -   -  27 36 mph 1026.8mb 68f 66f
6:10am  -   -   -  25 31 mph 1026.8mb 68f 66f
6:00am  -   -   -  25 34 mph 1027mb 68f 66f
5:50am 10ft 9s 6s 25 36 mph 1027mb 68f 66f
5:40am  -   -   -  25 31 mph 1027mb 68f 66f
5:30am  -   -   -  27 34 mph 1027mb 68f 66f
5:20am  -   -   -  29 34 mph 1027mb 68f 66f
5:10am  -   -   -  27 36 mph 1027.2mb 68f 66f
5:00am  -   -   -  27 34 mph 1027mb 68f 66f
4:50am 10ft 8s 6s 27 36 mph 1027mb 68f 66f
4:40am  -   -   -  27 34 mph 1027mb 68f 66f
4:30am  -   -   -  29 34 mph 1026.8mb 68f 66f
4:20am  -   -   -  27 34 mph 1026.8mb 68f 66f
4:10am  -   -   -  25 34 mph 1026.8mb 68f 66f
4:00am  -   -   -  27 34 mph 1026.7mb 68f 66f
3:50am 9ft 8s 6s 25 34 mph 1026.7mb 68f 66f
3:40am  -   -   -  27 34 mph 1026.7mb 68f 66f
3:30am  -   -   -  27 34 mph 1026.5mb 68f 66f
3:20am  -   -   -  29 36 mph - - 66f
3:10am  -   -   -  27 31 mph 1026.5mb 68f 66f
3:00am  -   -   -  27 34 mph 1026.5mb 68f 66f
2:50am 9ft 8s 6s 25 31 mph 1026.5mb 68f 66f
2:40am  -   -   -  27 34 mph 1026.5mb 68f 66f
2:30am  -   -   -  27 36 mph 1026.5mb 68f 66f
2:20am  -   -   -  27 34 mph 1026.7mb 68f 66f
2:10am  -   -   -  27 34 mph 1026.7mb 68f 66f
2:00am  -   -   -  27 36 mph 1026.7mb 68f 66f
1:50am 9.5ft 8s 6s 27 34 mph 1026.7mb 68f 66f
1:40am  -   -   -  27 34 mph 1026.7mb 68f 66f
1:30am  -   -   -  27 31 mph 1026.8mb 68f 66f
1:20am  -   -   -  27 34 mph 1026.8mb 68f 66f
1:10am  -   -   -  27 31 mph 1027mb 68f 66f
1:00am  -   -   -  25 31 mph 1026.8mb 68f 66f
12:50am 9ft 8s 6s 27 34 mph 1026.8mb 68f 66f
12:40am  -   -   -  27 34 mph 1027mb 68f 66f
12:30am  -   -   -  27 34 mph 1027.3mb 68f 66f
12:20am  -   -   -  25 31 mph 1027.2mb 68f 66f
12:10am  -   -   -  25 31 mph 1027.3mb 68f 66f
12:00am  -   -   -  25 31 mph 1027.3mb 68f 66f
Thu 08/25 11:50pm 9ft 8s 6s 25 31 mph 1027.5mb 68f 66f
11:40pm  -   -   -  25 31 mph 1027.5mb 68f 66f
11:30pm  -   -   -  25 31 mph 1027.5mb 68f 66f
11:20pm  -   -   -  25 31 mph 1027.8mb 68f 66f
11:10pm  -   -   -  27 31 mph 1027.8mb 68f 66f
11:00pm  -   -   -  25 31 mph 1027.8mb 68f 66f
10:50pm 7.5ft 7s 6s 25 34 mph 1028mb 68f 66f
10:40pm  -   -   -  25 31 mph 1028mb 68f 66f
10:30pm  -   -   -  27 31 mph 1028.3mb 68f 66f
10:20pm  -   -   -  25 29 mph 1028.3mb 68f 66f
10:10pm  -   -   -  25 29 mph 1028.3mb 68f 66f
10:00pm  -   -   -  25 31 mph 1028.5mb 68f 66f
9:50pm 8ft 7s 6s 25 29 mph 1028.5mb 68f 66f
9:40pm  -   -   -  25 29 mph 1028.5mb 68f 66f
9:30pm  -   -   -  25 29 mph 1028.5mb 68f 66f
9:20pm  -   -   -  25 31 mph 1028.5mb 68f 66f
9:10pm  -   -   -  25 31 mph 1028.5mb 68f 66f
9:00pm  -   -   -  25 29 mph 1028.5mb 68f 66f
8:50pm 8ft 8s 6s 25 29 mph 1028.7mb 68f 66f
8:40pm  -   -   -  25 31 mph 1028.8mb 68f 66f
8:30pm  -   -   -  25 34 mph 1028.8mb 68f 66f
8:20pm  -   -   -  25 31 mph 1028.8mb 68f 66f
8:10pm  -   -   -  22 29 mph 1028.8mb 68f 66f
8:00pm  -   -   -  25 29 mph 1029mb 68f 67f
7:50pm 7.5ft 8s 5s 25 29 mph 1029mb 68f 67f
7:40pm  -   -   -  22 29 mph 1029mb 68f 66f
7:30pm  -   -   -  25 29 mph 1029.3mb 68f 66f
7:20pm  -   -   -  25 31 mph 1029.3mb 68f 66f
7:10pm  -   -   -  22 29 mph 1029.3mb 68f 67f
7:00pm  -   -   -  22 29 mph 1029.3mb 68f 67f
6:50pm 7.5ft 7s 6s 25 29 mph 1029.5mb 68f 67f
6:40pm  -   -   -  25 31 mph 1029.5mb 68f 67f
6:30pm  -   -   -  22 29 mph 1029.8mb 68f 67f
6:20pm  -   -   -  22 29 mph 1029.5mb 68f 67f
6:10pm  -   -   -  22 29 mph 1029.5mb 68f 67f
6:00pm  -   -   -  22 29 mph 1029.7mb 68f 67f
5:50pm 7ft 7s 6s 22 27 mph 1029.7mb 68f 67f
5:40pm  -   -   -  22 29 mph 1029.5mb 68f 67f
5:30pm  -   -   -  22 27 mph 1029.7mb 68f 67f
5:20pm  -   -   -  20 27 mph 1029.8mb 68f 67f
5:10pm  -   -   -  22 27 mph 1029.8mb 68f 67f
5:00pm  -   -   -  22 27 mph 1029.8mb 68f 67f
4:50pm 6.5ft 7s 5s 22 27 mph 1029.8mb 68f 67f
4:40pm  -   -   -  22 27 mph 1029.8mb 68f 67f
4:30pm  -   -   -  22 27 mph 1029.8mb 68f 67f
4:20pm  -   -   -  22 27 mph 1030mb 68f 67f
4:10pm  -   -   -  22 27 mph 1030mb 68f 66f
4:00pm  -   -   -  22 27 mph 1030mb 68f 66f
3:50pm 6ft 7s 5s 20 27 mph 1030mb 68f 66f
3:40pm  -   -   -  20 25 mph 1030.2mb 68f 66f
3:30pm  -   -   -  22 27 mph 1030mb 68f 66f
3:20pm  -   -   -  22 27 mph 1030.2mb 68f 66f
3:10pm  -   -   -  20 27 mph 1030.3mb 68f 66f
3:00pm  -   -   -  20 27 mph 1030.3mb - 66f
2:50pm 6ft 7s 5s 22 27 mph 1030.2mb 68f 66f
2:40pm  -   -   -  20 27 mph 1030.3mb 68f 66f
2:30pm  -   -   -  20 25 mph 1030.3mb 68f 66f
2:20pm  -   -   -  20 25 mph 1030.3mb 68f 66f
2:10pm  -   -   -  20 22 mph 1030.3mb 68f 66f
2:00pm  -   -   -  20 22 mph 1030.3mb 68f 66f
1:50pm 5.5ft 6s 5s 20 25 mph 1030.2mb 68f 65f
1:40pm  -   -   -  20 25 mph 1030.3mb 68f 65f
1:30pm  -   -   -  20 25 mph 1030.3mb 68f 65f
1:20pm  -   -   -  20 25 mph 1030.3mb 68f 65f
1:10pm  -   -   -  20 22 mph 1030.3mb 68f 65f
1:00pm  -   -   -  20 25 mph 1030.3mb 68f 65f
12:50pm 5.5ft 6s 5s 20 25 mph 1030.3mb 68f 65f
12:40pm  -   -   -  20 27 mph 1030.3mb 68f 65f
12:30pm  -   -   -  20 25 mph 1030.3mb 68f 65f
12:20pm  -   -   -  20 25 mph 1030.3mb 68f 65f
12:10pm  -   -   -  20 25 mph 1030.5mb 68f 65f
12:00pm  -   -   -  20 27 mph 1030.5mb 68f 65f
11:50am 5.5ft 6s 5s 22 27 mph 1030.5mb 68f 65f
11:40am  -   -   -  20 25 mph 1030.5mb 68f 65f
11:30am  -   -   -  20 25 mph 1030.7mb 68f 65f
11:20am  -   -   -  20 27 mph 1030.8mb 68f 65f
11:10am  -   -   -  22 27 mph 1030.8mb 68f 65f
11:00am  -   -   -  22 27 mph 1030.8mb 68f 65f
10:50am 5ft 7s 5s 20 25 mph 1031mb 68f 65f
10:40am  -   -   -  20 25 mph 1031mb 68f 65f
10:30am  -   -   -  20 27 mph 1031mb 68f 65f
10:20am  -   -   -  20 27 mph 1030.8mb 68f 65f
10:10am  -   -   -  20 25 mph 1030.8mb 68f 65f
10:00am  -   -   -  20 27 mph 1031mb 68f 65f
9:50am 5ft 6s 5s 20 25 mph 1031.2mb 68f 65f
9:40am  -   -   -  20 25 mph 1031.3mb 68f 65f
9:30am  -   -   -  20 25 mph 1031.3mb 68f 65f
9:20am  -   -   -  20 22 mph 1031.3mb 68f 65f
9:10am  -   -   -  20 25 mph 1031.3mb 68f 65f
9:00am  -   -   -  18 25 mph 1031.3mb 68f 66f
8:50am 5.5ft 6s 5s 20 25 mph 1031.3mb 68f 65f
8:40am  -   -   -  20 25 mph 1031.3mb 68f 66f
8:30am  -   -   -  18 22 mph 1031.3mb 68f 66f
8:20am  -   -   -  18 22 mph 1031.3mb 68f 66f
8:10am  -   -   -  18 22 mph 1031.3mb 68f 66f
8:00am  -   -   -  18 22 mph 1031.3mb 68f 66f
7:50am 4.5ft 7s 5s 18 22 mph 1031.3mb 68f 66f
7:40am  -   -   -  18 22 mph 1031.3mb 68f 66f
7:30am  -   -   -  20 22 mph 1031.3mb 68f 66f
7:20am  -   -   -  18 20 mph 1031.3mb 68f 66f
7:10am  -   -   -  18 22 mph 1031.3mb 68f 66f
7:00am  -   -   -  18 22 mph 1031.3mb 68f 66f
6:50am 4.5ft 6s 5s 18 22 mph 1031.3mb 68f 66f
6:40am  -   -   -  20 22 mph 1031.5mb 68f 66f
6:30am  -   -   -  20 25 mph 1031.3mb 68f 66f
6:20am  -   -   -  18 22 mph 1031.3mb 68f 66f
6:10am  -   -   -  20 22 mph 1031.3mb 68f 66f
6:00am  -   -   -  18 22 mph 1031.3mb 68f 66f
5:50am 4.5ft 13s 5s 18 20 mph 1031.3mb 68f 66f
5:40am  -   -   -  18 22 mph 1031.3mb 68f 66f
5:30am  -   -   -  16 20 mph 1031.3mb 68f 66f
5:20am  -   -   -  16 20 mph 1031.3mb 68f 66f
5:10am  -   -   -  18 22 mph 1031.2mb 68f 66f
5:00am  -   -   -  20 25 mph 1031.2mb 68f 65f
4:50am 4.5ft 6s 5s 20 25 mph 1031.2mb 68f 65f
4:40am  -   -   -  22 27 mph 1031.2mb 68f 65f
4:30am  -   -   -  20 27 mph 1031mb 68f 65f
4:20am  -   -   -  18 22 mph 1030.8mb - 65f
4:10am  -   -   -  18 20 mph 1030.8mb 68f 65f
4:00am  -   -   -  18 22 mph 1030.8mb 68f 65f
3:50am 4ft 7s 5s 20 27 mph 1030.8mb 68f 65f
3:40am  -   -   -  18 25 mph 1030.7mb 68f 65f
3:30am  -   -   -  18 25 mph 1030.5mb 68f 65f
3:20am  -   -   -  20 25 mph 1030.5mb 68f 65f
3:10am  -   -   -  18 25 mph 1030.5mb 68f 66f
3:00am  -   -   -  18 25 mph 1030.5mb 68f 66f
2:50am 4.5ft 13s 5s 18 22 mph 1030.5mb 68f 66f
2:40am  -   -   -  18 22 mph 1030.5mb 68f 66f
2:30am  -   -   -  18 20 mph 1030.5mb 68f 66f
2:20am  -   -   -  16 20 mph 1030.5mb - 66f
2:10am  -   -   -  16 20 mph 1030.8mb 68f 66f
2:00am  -   -   -  16 20 mph 1030.7mb 68f 66f
1:50am 4.5ft 13s 5s 18 22 mph 1030.8mb 68f 66f
1:40am  -   -   -  18 20 mph 1030.8mb 68f 66f
1:30am  -   -   -  18 22 mph 1030.8mb 68f 66f
1:20am  -   -   -  18 20 mph 1030.8mb 68f 66f
1:10am  -   -   -  16 20 mph 1030.8mb 68f 66f
1:00am  -   -   -  16 20 mph 1031mb 68f 66f
12:50am 4ft 7s 5s 16 20 mph 1031mb 68f 66f
12:40am  -   -   -  16 18 mph 1031.2mb 68f 66f
12:30am  -   -   -  16 18 mph 1031.2mb 68f 67f
12:20am  -   -   -  13 16 mph 1031.2mb - 66f
12:10am  -   -   -  16 20 mph 1031.2mb 68f 66f
12:00am  -   -   -  16 20 mph 1031.3mb 68f 66f
Wed 08/24 11:50pm 4ft 13s 5s 16 20 mph 1031.3mb 68f 67f
11:40pm  -   -   -  16 20 mph 1031.3mb 68f 67f
11:30pm  -   -   -  16 18 mph 1031.3mb 68f 66f
11:20pm  -   -   -  16 18 mph 1031.3mb 68f 66f
11:10pm  -   -   -  16 20 mph 1031.5mb 68f 66f
11:00pm  -   -   -  16 20 mph 1031.5mb 68f 66f
10:50pm 4.5ft 13s 5s 16 18 mph 1031.5mb 68f 66f
10:40pm  -   -   -  16 20 mph 1031.5mb 68f 66f
10:30pm  -   -   -  16 20 mph 1031.7mb 68f 66f
10:20pm  -   -   -  16 20 mph 1031.8mb 68f 66f
10:10pm  -   -   -  16 18 mph 1031.8mb 68f 66f
10:00pm  -   -   -  16 18 mph 1031.8mb 68f 66f
9:50pm 4.5ft 12s 5s 13 18 mph 1031.8mb 68f 66f
9:40pm  -   -   -  13 18 mph 1031.8mb 68f 66f
9:30pm  -   -   -  11 13 mph 1031.8mb 68f 66f
9:20pm  -   -   -  13 16 mph 1031.8mb 68f 66f
9:10pm  -   -   -  13 16 mph 1031.8mb 68f 66f
9:00pm  -   -   -  11 16 mph 1031.8mb 68f 65f
8:50pm 4.5ft 13s 5s 11 13 mph 1032mb 68f 66f
8:40pm  -   -   -  11 16 mph 1031.8mb 68f 65f
8:30pm  -   -   -  13 16 mph 1032mb 68f 65f
8:20pm  -   -   -  13 16 mph 1032mb 68f 65f
8:10pm  -   -   -  11 16 mph 1032mb 68f 65f
8:00pm  -   -   -  13 16 mph 1032.2mb 68f 65f
7:50pm 4ft 6s 5s 13 16 mph 1032.2mb 68f 65f
7:40pm  -   -   -  16 18 mph 1032.2mb 68f 66f
7:30pm  -   -   -  13 18 mph 1032mb 68f 66f
7:20pm  -   -   -  16 18 mph 1032.2mb 68f 66f
7:10pm  -   -   -  16 20 mph 1032.2mb 68f 65f
7:00pm  -   -   -  16 20 mph 1032.2mb 68f 65f
6:50pm 4ft 6s 5s 16 20 mph 1032.3mb 68f 65f
6:40pm  -   -   -  18 20 mph 1032mb 68f 65f
6:30pm  -   -   -  18 22 mph 1032mb 68f 66f
6:20pm  -   -   -  16 20 mph 1031.8mb 68f 66f
6:10pm  -   -   -  16 20 mph 1031.8mb 68f 66f
6:00pm  -   -   -  11 16 mph 1031.8mb 68f 66f
5:50pm 4ft 13s 5s 13 18 mph 1031.8mb 68f 65f
5:40pm  -   -   -  11 16 mph 1031.7mb 68f 66f
5:30pm  -   -   -  13 16 mph 1031.5mb 68f 66f
5:20pm  -   -   -  11 16 mph 1031.7mb 68f 66f
5:10pm  -   -   -  13 18 mph 1031.7mb 68f 66f
5:00pm  -   -   -  13 16 mph 1031.7mb 68f 65f
4:50pm 3.5ft 14s  -  13 18 mph 1031.5mb 68f 65f
4:40pm  -   -   -  13 18 mph 1031.5mb 68f 65f
4:30pm  -   -   -  18 22 mph 1031.5mb 68f 65f
4:20pm  -   -   -  16 20 mph 1031.3mb 68f 66f
4:10pm  -   -   -  13 16 mph 1031.3mb 68f 66f
4:00pm  -   -   -  13 18 mph 1031.3mb 68f 66f
3:50pm 4ft 13s 5s 13 18 mph 1031.3mb 68f 66f
3:40pm  -   -   -  11 16 mph 1031.2mb 68f 66f
3:30pm  -   -   -  11 16 mph 1031.2mb 68f 65f
3:20pm  -   -   -  13 18 mph 1031.2mb 68f 65f
3:10pm  -   -   -  13 18 mph 1030.8mb 68f 65f
3:00pm  -   -   -  11 18 mph 1030.8mb 68f 66f
2:50pm 4ft 14s 5s 13 16 mph 1030.7mb 68f 66f
2:40pm  -   -   -  13 18 mph 1030.5mb 68f 66f
2:30pm  -   -   -  13 18 mph 1030.3mb 68f 66f
2:20pm  -   -   -  16 18 mph 1030.3mb 68f 66f
2:10pm  -   -   -  16 20 mph 1030.3mb 68f 66f
2:00pm  -   -   -  16 20 mph 1030.3mb 68f 66f
1:50pm 3.5ft 13s 5s 16 20 mph 1030.2mb 68f 66f
1:40pm  -   -   -  16 18 mph 1030mb 68f 65f
1:30pm  -   -   -  16 20 mph 1030mb 68f 65f
1:20pm  -   -   -  16 20 mph 1029.8mb 68f 65f
1:10pm  -   -   -  16 20 mph 1029.8mb 68f 65f
1:00pm  -   -   -  16 18 mph 1029.8mb 68f 65f
12:50pm 3.5ft 14s 5s 13 18 mph 1029.8mb 68f 65f
12:40pm  -   -   -  13 18 mph 1029.8mb 68f 65f
12:30pm  -   -   -  13 16 mph 1029.8mb 68f 65f
12:20pm  -   -   -  16 18 mph 1029.8mb 68f 65f
12:10pm  -   -   -  16 18 mph 1029.7mb 68f 65f
12:00pm  -   -   -  16 18 mph 1029.8mb 68f 65f
11:50am 4ft 13s 5s 16 18 mph 1029.8mb 68f 66f
11:40am  -   -   -  16 20 mph 1029.8mb 68f 65f
11:30am  -   -   -  16 18 mph 1029.8mb 68f 65f
11:20am  -   -   -  16 18 mph 1029.8mb 68f 65f
11:10am  -   -   -  16 20 mph 1029.7mb 68f 65f
11:00am  -   -   -  16 20 mph 1029.5mb 68f 65f
10:50am 4ft 14s 5s 16 20 mph 1029.5mb 68f 65f
10:40am  -   -   -  13 18 mph 1029.5mb 68f 65f
10:30am  -   -   -  13 18 mph 1029.5mb 68f 65f
10:20am  -   -   -  16 18 mph 1029.5mb 68f 66f
10:10am  -   -   -  16 20 mph 1029.3mb 68f 66f
10:00am  -   -   -  16 20 mph 1029.3mb 68f 66f
9:50am 4.5ft 14s 5s 16 18 mph 1029.3mb 68f 65f
9:40am  -   -   -  16 18 mph 1029.5mb 68f 66f
9:30am  -   -   -  13 18 mph 1029.5mb 68f 66f
9:20am  -   -   -  13 16 mph 1029.5mb 68f 65f
9:10am  -   -   -  11 16 mph 1029.5mb 68f 66f
9:00am  -   -   -  13 16 mph 1029.3mb 68f 66f
8:50am 4.5ft 14s 5s 11 16 mph 1029.5mb 68f 66f
8:40am  -   -   -  11 16 mph 1029.5mb 68f 66f
8:30am  -   -   -  11 13 mph 1029.5mb 68f 66f
8:20am  -   -   -  11 16 mph 1029.5mb 68f 66f
8:10am  -   -   -  13 16 mph 1029.5mb 68f 66f
8:00am  -   -   -  13 16 mph 1029.3mb 67f 66f
7:50am 4.5ft 5s 5s 13 16 mph 1029.3mb 67f 66f
7:40am  -   -   -  13 16 mph 1029.3mb 67f 66f
7:30am  -   -   -  13 16 mph 1029.3mb 67f 66f
7:20am  -   -   -  13 16 mph 1029.3mb 67f 66f
7:10am  -   -   -  13 16 mph 1029.2mb 67f 66f
7:00am  -   -   -  13 16 mph 1029mb 67f 66f
6:50am 4ft 14s 5s 13 18 mph 1029mb 67f 66f
6:40am  -   -   -  13 18 mph 1029mb 67f 66f
6:30am  -   -   -  16 18 mph 1028.8mb 67f 66f
6:20am  -   -   -  13 18 mph 1028.8mb 67f 66f
6:10am  -   -   -  16 18 mph 1028.7mb 67f 66f
6:00am  -   -   -  13 16 mph 1028.7mb 67f 66f
5:50am 4.5ft 14s 5s 13 18 mph 1028.7mb 67f 66f
5:40am  -   -   -  13 16 mph 1028.7mb 67f 66f
5:30am  -   -   -  13 16 mph 1028.7mb 67f 66f
5:20am  -   -   -  11 16 mph 1028.5mb 67f 66f
5:10am  -   -   -  11 16 mph 1028.5mb 67f 66f
5:00am  -   -   -  11 16 mph 1028.5mb 67f 66f
4:50am 4.5ft 14s 5s 13 16 mph 1028.3mb 67f 66f
4:40am  -   -   -  11 16 mph 1028.2mb 67f 66f
4:30am  -   -   -  13 16 mph 1028.2mb 67f 66f
4:20am  -   -   -  11 16 mph 1028mb 67f 66f
4:10am  -   -   -  13 16 mph 1028mb 67f 66f
4:00am  -   -   -  11 16 mph 1027.8mb 67f 66f
3:50am 4.5ft 13s 5s 11 16 mph 1028mb 67f 66f
3:40am  -   -   -  13 16 mph 1027.8mb 67f 66f
3:30am  -   -   -  13 16 mph 1027.7mb 67f 66f
3:20am  -   -   -  13 16 mph 1027.5mb 67f 66f
3:10am  -   -   -  13 16 mph 1027.5mb 67f 66f
3:00am  -   -   -  13 16 mph 1027.3mb 67f 66f
2:50am 4.5ft 14s 5s 13 16 mph 1027.3mb 67f 66f
2:40am  -   -   -  13 16 mph 1027.5mb 67f 66f
2:30am  -   -   -  11 16 mph 1027.3mb 67f 66f
2:20am  -   -   -  11 16 mph 1027.3mb 67f 66f
2:10am  -   -   -  13 16 mph 1027.3mb 67f 66f
2:00am  -   -   -  13 16 mph 1027.3mb 67f 66f
1:50am 4.5ft 14s 5s 13 16 mph 1027.3mb 67f 66f
1:40am  -   -   -  13 16 mph 1027.3mb 67f 66f
1:30am  -   -   -  13 18 mph 1027mb 67f 66f
1:20am  -   -   -  13 16 mph 1027mb 67f 66f
1:10am  -   -   -  16 20 mph 1027mb 67f 66f
1:00am  -   -   -  18 22 mph 1026.8mb 67f 66f
12:50am 4.5ft 15s 5s 16 22 mph 1026.8mb 67f 66f
12:40am  -   -   -  16 18 mph 1027mb 67f 66f
12:30am  -   -   -  13 18 mph 1027mb 67f 66f
12:20am  -   -   -  13 18 mph 1027.2mb 68f 66f
12:10am  -   -   -  13 18 mph 1027.2mb 68f 66f
12:00am  -   -   -  16 18 mph 1027.2mb 68f 66f
Tue 08/23 11:50pm 4.5ft 15s 5s 16 18 mph 1027mb 68f 66f
11:40pm  -   -   -  13 18 mph 1027mb 68f 66f
11:30pm  -   -   -  16 18 mph 1027mb 68f 66f
11:20pm  -   -   -  16 18 mph 1027mb 68f 66f
11:10pm  -   -   -  16 20 mph 1026.8mb 68f 66f
11:00pm  -   -   -  16 18 mph 1026.8mb 68f 66f
10:50pm 4.5ft 15s 5s 16 22 mph 1026.8mb 68f 66f
10:40pm  -   -   -  16 20 mph 1026.8mb 68f 66f
10:30pm  -   -   -  16 20 mph 1026.8mb 68f 66f
10:20pm  -   -   -  16 20 mph 1026.8mb 68f 66f
10:10pm  -   -   -  16 20 mph 1026.8mb 68f 66f
10:00pm  -   -   -  16 18 mph 1026.8mb 68f 66f
9:50pm 4.5ft 15s 5s 13 18 mph 1026.5mb 68f 66f
9:40pm  -   -   -  13 16 mph 1026.5mb 68f 66f
9:30pm  -   -   -  13 16 mph 1026.5mb 68f 66f
9:20pm  -   -   -  13 18 mph 1026.5mb 67f 66f
9:10pm  -   -   -  16 18 mph 1026.5mb 68f 66f
9:00pm  -   -   -  16 18 mph 1026.5mb 67f 66f
8:50pm 4.5ft 15s 5s 16 18 mph 1026.5mb 67f 66f
8:40pm  -   -   -  16 18 mph 1026.3mb 67f 66f
8:30pm  -   -   -  16 18 mph 1026.5mb 67f 66f
8:20pm  -   -   -  16 20 mph 1026.5mb 67f 66f
8:10pm  -   -   -  16 20 mph 1026.5mb 67f 66f
8:00pm  -   -   -  18 20 mph 1026.3mb 67f 66f
7:50pm 4.5ft 14s 5s 16 20 mph 1026.3mb 67f 66f
7:40pm  -   -   -  16 20 mph 1026.5mb 67f 66f
7:30pm  -   -   -  16 20 mph 1026.5mb 67f 66f
7:20pm  -   -   -  18 20 mph 1026.3mb 67f 66f
7:10pm  -   -   -  18 20 mph 1026.3mb 67f 66f
7:00pm  -   -   -  18 22 mph 1026.2mb 67f 66f
6:50pm 4.5ft 15s 5s 18 20 mph 1026mb 67f 66f
6:40pm  -   -   -  18 22 mph 1026mb 67f 66f
6:30pm  -   -   -  18 20 mph 1026mb 67f 66f
6:20pm  -   -   -  18 20 mph 1026mb 67f 66f
6:10pm  -   -   -  18 22 mph 1025.8mb 67f 66f
6:00pm  -   -   -  18 22 mph 1025.7mb 67f 66f
5:50pm 4.5ft 15s 5s 18 22 mph 1025.8mb 67f 66f
5:40pm  -   -   -  18 22 mph 1025.7mb 67f 66f
5:30pm  -   -   -  16 20 mph 1025.7mb 67f 65f
5:20pm  -   -   -  16 20 mph 1025.5mb 67f 65f
5:10pm  -   -   -  16 20 mph 1025.5mb 67f 65f
5:00pm  -   -   -  18 20 mph 1025.5mb 67f 65f
4:50pm 4.5ft 15s 5s 16 18 mph 1025.5mb 67f 65f
4:40pm  -   -   -  16 18 mph 1025.5mb 67f 65f
4:30pm  -   -   -  13 18 mph 1025.3mb 67f 65f
4:20pm  -   -   -  13 18 mph 1025.3mb 67f 65f
4:10pm  -   -   -  13 16 mph 1025.2mb 67f 65f
4:00pm  -   -   -  13 18 mph 1025mb 67f 66f
3:50pm 4.5ft 15s 5s 13 18 mph 1024.8mb 67f 65f
3:40pm  -   -   -  16 20 mph 1024.8mb 67f 65f
3:30pm  -   -   -  16 20 mph 1024.7mb 67f 66f
3:20pm  -   -   -  16 20 mph 1024.5mb 67f 66f
3:10pm  -   -   -  16 20 mph 1024.5mb 67f 66f
3:00pm  -   -   -  13 18 mph 1024.5mb 67f 65f
2:50pm 4.5ft 15s 5s 13 16 mph 1024.3mb 67f 65f
2:40pm  -   -   -  16 18 mph 1024.3mb 67f 65f
2:30pm  -   -   -  18 20 mph 1024.3mb 67f 65f
2:20pm  -   -   -  16 22 mph 1024mb 67f 65f
2:10pm  -   -   -  18 22 mph 1024mb 67f 65f
2:00pm  -   -   -  18 20 mph 1023.8mb 67f 66f
1:50pm 4.5ft 15s 5s 16 20 mph 1023.8mb 67f 66f
1:40pm  -   -   -  16 18 mph 1023.8mb 67f 65f
1:30pm  -   -   -  16 20 mph 1023.6mb 67f 65f
1:20pm  -   -   -  18 20 mph 1023.5mb 67f 65f
1:10pm  -   -   -  16 20 mph 1023.5mb 67f 65f
1:00pm  -   -   -  16 18 mph 1023.5mb 67f 65f
12:50pm 4.5ft 15s 5s 16 20 mph 1023.5mb 67f 65f
12:40pm  -   -   -  18 20 mph 1023.5mb 67f 65f
12:30pm  -   -   -  18 22 mph 1023.3mb 67f 65f
12:20pm  -   -   -  16 18 mph 1023.3mb 67f 65f
12:10pm  -   -   -  13 18 mph 1023.1mb 67f 65f
12:00pm  -   -   -  13 18 mph 1023.1mb 67f 65f
11:50am 4.5ft 15s 5s 16 18 mph 1023.1mb 67f 65f
11:40am  -   -   -  16 20 mph 1023.1mb 67f 65f
11:30am  -   -   -  16 20 mph 1023mb 67f 65f
11:20am  -   -   -  18 20 mph 1023mb 67f 65f
11:10am  -   -   -  18 20 mph 1023mb 67f 65f
11:00am  -   -   -  16 20 mph 1023mb 67f 65f
10:50am 4.5ft 15s 5s 16 20 mph 1022.9mb 67f 65f
10:40am  -   -   -  18 20 mph 1023mb 67f 65f
10:30am  -   -   -  18 22 mph 1023mb 67f 65f
10:20am  -   -   -  18 20 mph 1023mb 67f 66f
10:10am  -   -   -  18 20 mph 1022.9mb 67f 66f
10:00am  -   -   -  16 20 mph 1023mb 67f 66f
9:50am 4.5ft 15s 5s 16 20 mph 1023mb 67f 66f
9:40am  -   -   -  16 18 mph 1022.9mb 67f 66f
9:30am  -   -   -  13 18 mph 1023mb 67f 66f
9:20am  -   -   -  13 16 mph 1022.9mb 67f 66f
9:10am  -   -   -  13 16 mph 1023mb 67f 66f
9:00am  -   -   -  13 16 mph 1023mb 67f 66f
8:50am 4ft 15s 5s 11 16 mph 1023mb 67f 66f
8:40am  -   -   -  13 16 mph 1023mb 67f 66f
8:30am  -   -   -  13 18 mph 1023mb 67f 66f
8:20am  -   -   -  11 20 mph 1023mb 67f 66f
8:10am  -   -   -  13 18 mph 1023mb 67f 66f
8:00am  -   -   -  11 16 mph 1023mb 67f 66f
7:50am 4.5ft 15s 5s 13 18 mph 1023mb 67f 66f
7:40am  -   -   -  16 22 mph 1023mb 67f 66f
7:30am  -   -   -  13 18 mph 1023mb 67f 66f
7:20am  -   -   -  13 18 mph 1023mb 67f 66f
7:10am  -   -   -  16 22 mph 1023mb 67f 66f
7:00am  -   -   -  16 22 mph 1023mb 67f 66f
6:50am 4.5ft 13s 5s 13 22 mph 1023mb 67f 66f
6:40am  -   -   -  16 22 mph 1023mb 67f 66f
6:30am  -   -   -  16 20 mph 1023mb 67f 66f
6:20am  -   -   -  16 22 mph 1023mb 67f 66f
6:10am  -   -   -  16 20 mph 1022.9mb 67f 66f
6:00am  -   -   -  13 18 mph 1022.9mb 67f 66f
5:50am 4.5ft 16s 5s 13 18 mph 1022.9mb 67f 66f
5:40am  -   -   -  16 20 mph 1023mb 67f 66f
5:30am  -   -   -  16 20 mph 1022.9mb 67f 66f
5:20am  -   -   -  16 20 mph 1022.8mb 67f 66f
5:10am  -   -   -  18 22 mph 1022.5mb 68f 66f
5:00am  -   -   -  16 22 mph 1022.4mb 67f 66f
4:50am 4ft 15s 5s 16 18 mph 1022.4mb 68f 66f
4:40am  -   -   -  16 20 mph 1022mb 68f 66f
4:30am  -   -   -  16 20 mph 1022mb 68f 66f
4:20am  -   -   -  18 22 mph 1022mb 68f 66f
4:10am  -   -   -  16 20 mph 1021.9mb 68f 66f
4:00am  -   -   -  16 18 mph 1021.8mb 68f 66f
3:50am 4.5ft 16s 5s 13 18 mph 1021.5mb 68f 66f
3:40am  -   -   -  16 18 mph 1021.5mb 68f 66f
3:30am  -   -   -  13 18 mph 1021.5mb 68f 66f
3:20am  -   -   -  16 18 mph - - 66f
3:10am  -   -   -  13 18 mph 1021.5mb 68f 66f
3:00am  -   -   -  13 18 mph 1021.4mb 68f 66f
2:50am 4ft 16s 5s 13 18 mph 1021.4mb 68f 66f
2:40am  -   -   -  16 18 mph 1021.3mb 68f 66f
2:30am  -   -   -  13 18 mph 1021.3mb 68f 66f
2:20am  -   -   -  13 16 mph 1021.4mb 68f 66f
2:10am  -   -   -  13 18 mph 1021.5mb 68f 66f
2:00am  -   -   -  13 18 mph 1021.5mb 68f 66f
1:50am 4.5ft 16s 6s 13 18 mph 1021.5mb 68f 66f
1:40am  -   -   -  13 16 mph 1021.5mb 68f 66f
1:30am  -   -   -  13 16 mph 1021.5mb 68f 66f
1:20am  -   -   -  13 16 mph 1021.6mb 68f 66f
1:10am  -   -   -  13 16 mph 1021.5mb 68f 66f
1:00am  -   -   -  13 18 mph 1021.5mb 68f 66f
12:50am 4ft 16s 6s 13 18 mph 1021.5mb 68f 66f
12:40am  -   -   -  13 16 mph 1021.5mb 68f 66f
12:30am  -   -   -  13 18 mph 1021.5mb 68f 66f
12:20am  -   -   -  13 18 mph 1021.5mb 68f 66f
12:10am  -   -   -  16 18 mph 1021.5mb 68f 66f
12:00am  -   -   -  13 18 mph 1021.5mb 68f 66f
Mon 08/22 11:50pm 4.5ft 16s 6s 13 18 mph 1021.5mb 68f 66f
11:40pm  -   -   -  13 16 mph 1021.5mb 68f 66f
11:30pm  -   -   -  11 16 mph 1021.5mb 68f 66f